»·PEaware :: N969WR KSLC-KTEX

N969WR :: KSLC-KTEX

FLIGHT INFORMATION

Flight Status: Arrived
Operator: Privately registered:
United States
More flights under this callsign
Pilot: Ion I. (24133)
Aircraft: CANADAIR CL-600 CHALLENGER
(CL60)
More flights by this aircraft type
Origin: KSLC Salt Lake City Intl
United States
Destination: KTEX Telluride Regl
United States
More flights between these airports :: More routes between these airports
Route: ZIONZ1 KIMMR ETL
File this flight plan on PilotEdge
Remarks:
Altitude:
(Current/Filed)
35,000ft
Speed:
(Current/Filed)
460kts
Departed: 09-Sep-23 03:46 PM
Arrived: 09-Sep-23 04:35 PM
Distance/Time
Traveled:
254nm/0:49
Distance/Time
To Go:
Arrived

Flight Plot

Page will automatically refresh every two minutes.

Flight plan parsing failed; only flown route is shown


Map Options




Map Legend


Flown Route
Filed Route
Departure Airport
Arrival Airport
Navaid (VOR, NDB)
Fix

Horizontal Profiles

Position Reports

Time Latitude Longitude Heading Altitude Ground
Speed
09-Sep-23 15:17 40.775523 -111.959080 358 4235ft 0kts
09-Sep-23 15:18 40.775523 -111.959080 358 4235ft 0kts
09-Sep-23 15:19 40.775523 -111.959080 358 4235ft 0kts
09-Sep-23 15:20 40.775523 -111.959080 358 4235ft 0kts
09-Sep-23 15:21 40.775523 -111.959080 358 4235ft 0kts
09-Sep-23 15:22 40.775523 -111.959080 358 4235ft 0kts
09-Sep-23 15:23 40.775523 -111.959080 358 4235ft 0kts
09-Sep-23 15:24 40.775523 -111.959080 358 4235ft 0kts
09-Sep-23 15:25 40.775523 -111.959080 358 4235ft 0kts
09-Sep-23 15:26 40.775523 -111.959080 358 4235ft 0kts
09-Sep-23 15:27 40.775523 -111.959080 358 4235ft 0kts
09-Sep-23 15:28 40.775523 -111.959080 358 4235ft 0kts
09-Sep-23 15:29 40.775523 -111.959080 358 4235ft 0kts
09-Sep-23 15:30 40.775523 -111.959080 358 4235ft 0kts
09-Sep-23 15:31 40.775523 -111.959080 358 4235ft 0kts
09-Sep-23 15:32 40.775523 -111.959080 358 4235ft 0kts
09-Sep-23 15:33 40.775523 -111.959080 358 4235ft 0kts
09-Sep-23 15:34 40.775523 -111.959080 358 4235ft 0kts
09-Sep-23 15:35 40.775523 -111.959080 358 4235ft 0kts
09-Sep-23 15:36 40.775523 -111.959080 358 4235ft 0kts
09-Sep-23 15:37 40.775523 -111.959080 358 4235ft 0kts
09-Sep-23 15:38 40.775527 -111.959080 359 4235ft 0kts
09-Sep-23 15:39 40.776448 -111.960620 358 4235ft 11kts
09-Sep-23 15:40 40.780289 -111.959998 0 4235ft 16kts
09-Sep-23 15:41 40.785682 -111.960000 0 4235ft 22kts
09-Sep-23 15:42 40.792338 -111.960009 359 4235ft 24kts
09-Sep-23 15:43 40.799009 -111.959997 357 4235ft 12kts
09-Sep-23 15:44 40.798135 -111.962075 180 4235ft 21kts
09-Sep-23 15:45 40.759525 -111.960845 170 5508ft 191kts
09-Sep-23 15:46 40.699004 -111.947373 170 8334ft 240kts
09-Sep-23 15:47 40.626210 -111.946210 182 11289ft 290kts
09-Sep-23 15:48 40.538848 -111.949152 184 14684ft 337kts
09-Sep-23 15:49 40.440239 -111.950712 180 18185ft 369kts
09-Sep-23 15:50 40.335161 -111.941829 181 20835ft 388kts
09-Sep-23 15:51 40.229846 -111.910489 151 23465ft 412kts
09-Sep-23 15:52 40.131184 -111.828199 148 25585ft 433kts
09-Sep-23 15:53 40.053835 -111.701418 124 27759ft 464kts
09-Sep-23 15:54 39.986375 -111.554203 123 29618ft 481kts
09-Sep-23 15:55 39.916231 -111.402469 124 31293ft 494kts
09-Sep-23 15:56 39.843850 -111.246909 124 32497ft 508kts
09-Sep-23 15:57 39.769508 -111.087537 124 33441ft 518kts
09-Sep-23 15:58 39.693711 -110.925997 124 34195ft 527kts
09-Sep-23 15:59 39.616828 -110.763131 124 35142ft 527kts
09-Sep-23 16:00 39.539913 -110.601125 124 35712ft 528kts
09-Sep-23 16:01 39.462658 -110.439359 124 35696ft 527kts
09-Sep-23 16:02 39.385211 -110.278086 124 35654ft 527kts
09-Sep-23 16:03 39.307468 -110.117012 124 35655ft 528kts
09-Sep-23 16:04 39.227619 -109.957967 128 35694ft 527kts
09-Sep-23 16:05 39.133071 -109.814378 135 35703ft 521kts
09-Sep-23 16:06 39.037125 -109.674873 135 35713ft 520kts
09-Sep-23 16:07 38.940918 -109.535438 134 35834ft 520kts
09-Sep-23 16:08 38.843920 -109.395431 134 36026ft 526kts
09-Sep-23 16:09 38.747226 -109.256268 134 33967ft 520kts
09-Sep-23 16:10 38.652768 -109.121245 134 31423ft 498kts
09-Sep-23 16:11 38.563394 -108.994023 135 29026ft 470kts
09-Sep-23 16:12 38.478801 -108.870120 127 25961ft 461kts
09-Sep-23 16:13 38.407087 -108.735125 125 22235ft 455kts
09-Sep-23 16:14 38.338976 -108.607104 125 19694ft 416kts
09-Sep-23 16:15 38.276587 -108.490371 125 17509ft 383kts
09-Sep-23 16:16 38.217728 -108.380713 124 15497ft 372kts
09-Sep-23 16:17 38.135799 -108.308072 159 14741ft 368kts
09-Sep-23 16:18 38.049800 -108.260769 143 14739ft 323kts
09-Sep-23 16:19 38.010897 -108.162973 110 14446ft 314kts
09-Sep-23 16:20 37.985896 -108.059585 101 12176ft 291kts
09-Sep-23 16:21 37.949172 -107.981181 129 11866ft 222kts
09-Sep-23 16:22 37.909333 -107.926396 131 11172ft 188kts
09-Sep-23 16:23 37.913497 -107.872897 32 11140ft 178kts
09-Sep-23 16:24 37.927127 -107.862269 20 10768ft 180kts
09-Sep-23 16:32 37.932502 -107.861078 359 10731ft 165kts
09-Sep-23 16:33 37.948167 -107.882655 285 9508ft 157kts
09-Sep-23 16:34 37.955187 -107.915127 283 9050ft 23kts
09-Sep-23 16:35 37.955701 -107.917772 105 9053ft 24kts
09-Sep-23 16:36 37.953241 -107.906056 104 9072ft 35kts
09-Sep-23 16:37 37.953270 -107.900815 103 9078ft 4kts
09-Sep-23 16:38 37.953602 -107.900593 281 9078ft 0kts
09-Sep-23 16:39 37.953602 -107.900592 281 9078ft 0kts
09-Sep-23 16:41 37.953602 -107.900592 281 9078ft 0kts
09-Sep-23 16:42 37.953602 -107.900592 281 9078ft 0kts
09-Sep-23 16:43 37.953602 -107.900592 281 9078ft 0kts
09-Sep-23 16:44 37.953602 -107.900592 281 9078ft 0kts

Navigation Log

Ident Type
Flight plan parsing failed, navigation log unavailable